sensor_id;sensor_type;location;lat;lon;timestamp;temperature;humidity
38866;DHT22;62686;48.984;8.394;2022-08-18T20:33:07;20.80;99.90
38866;DHT22;62686;48.984;8.394;2022-08-18T20:35:38;20.70;99.90
38866;DHT22;62686;48.984;8.394;2022-08-18T20:38:12;20.80;99.90
38866;DHT22;62686;48.984;8.394;2022-08-18T20:40:43;20.70;99.90
38866;DHT22;62686;48.984;8.394;2022-08-18T20:43:25;20.80;99.90
38866;DHT22;62686;48.984;8.394;2022-08-18T20:46:07;20.70;99.90
38866;DHT22;62686;48.984;8.394;2022-08-18T20:51:39;20.70;99.90
38866;DHT22;62686;48.984;8.394;2022-08-18T20:54:22;20.60;99.90
38866;DHT22;62686;48.984;8.394;2022-08-18T20:56:54;20.60;99.90
38866;DHT22;62686;48.984;8.394;2022-08-18T20:59:30;20.50;99.90
38866;DHT22;62686;48.984;8.394;2022-08-18T21:02:03;20.50;99.90
38866;DHT22;62686;48.984;8.394;2022-08-18T21:04:43;20.50;99.90
38866;DHT22;62686;48.984;8.394;2022-08-18T21:07:21;20.50;99.90
38866;DHT22;62686;48.984;8.394;2022-08-18T21:09:52;20.60;99.90
38866;DHT22;62686;48.984;8.394;2022-08-18T21:12:22;20.50;99.90
38866;DHT22;62686;48.984;8.394;2022-08-18T21:14:51;20.50;99.90
38866;DHT22;62686;48.984;8.394;2022-08-18T21:17:23;20.50;99.90
38866;DHT22;62686;48.984;8.394;2022-08-18T21:20:00;20.50;99.90
38866;DHT22;62686;48.984;8.394;2022-08-18T21:22:29;20.50;99.90
38866;DHT22;62686;48.984;8.394;2022-08-18T21:24:59;20.40;99.90
38866;DHT22;62686;48.984;8.394;2022-08-18T21:27:31;20.30;99.90
38866;DHT22;62686;48.984;8.394;2022-08-18T21:30:04;20.20;99.90
38866;DHT22;62686;48.984;8.394;2022-08-18T21:32:36;20.20;99.90
38866;DHT22;62686;48.984;8.394;2022-08-18T21:35:21;20.20;99.90
38866;DHT22;62686;48.984;8.394;2022-08-18T21:37:57;20.10;99.90
38866;DHT22;62686;48.984;8.394;2022-08-18T21:40:35;20.20;99.90
38866;DHT22;62686;48.984;8.394;2022-08-18T21:43:06;20.10;99.90
38866;DHT22;62686;48.984;8.394;2022-08-18T21:45:41;20.20;99.90
38866;DHT22;62686;48.984;8.394;2022-08-18T21:48:14;20.10;99.90
38866;DHT22;62686;48.984;8.394;2022-08-18T21:50:49;20.20;99.90
38866;DHT22;62686;48.984;8.394;2022-08-18T21:53:21;20.20;99.90
38866;DHT22;62686;48.984;8.394;2022-08-18T21:55:51;20.20;99.90
38866;DHT22;62686;48.984;8.394;2022-08-18T21:58:25;20.10;99.90
38866;DHT22;62686;48.984;8.394;2022-08-18T22:01:19;20.10;99.90
38866;DHT22;62686;48.984;8.394;2022-08-18T22:03:52;20.10;99.90
38866;DHT22;62686;48.984;8.394;2022-08-18T22:06:27;20.00;99.90
38866;DHT22;62686;48.984;8.394;2022-08-18T22:08:58;20.00;99.90
38866;DHT22;62686;48.984;8.394;2022-08-18T22:11:48;19.80;99.90
38866;DHT22;62686;48.984;8.394;2022-08-18T22:14:42;19.90;99.90
38866;DHT22;62686;48.984;8.394;2022-08-18T22:17:40;19.80;99.90
38866;DHT22;62686;48.984;8.394;2022-08-18T22:20:38;19.80;99.90
38866;DHT22;62686;48.984;8.394;2022-08-18T22:23:26;19.80;99.90
38866;DHT22;62686;48.984;8.394;2022-08-18T22:26:19;19.80;99.90
38866;DHT22;62686;48.984;8.394;2022-08-18T22:28:53;19.80;99.90
38866;DHT22;62686;48.984;8.394;2022-08-18T22:31:23;19.80;99.90
38866;DHT22;62686;48.984;8.394;2022-08-18T22:33:52;19.80;99.90
38866;DHT22;62686;48.984;8.394;2022-08-18T22:36:26;19.80;99.90
38866;DHT22;62686;48.984;8.394;2022-08-18T22:38:55;19.80;99.90
38866;DHT22;62686;48.984;8.394;2022-08-18T22:41:23;19.80;99.90
38866;DHT22;62686;48.984;8.394;2022-08-18T22:43:52;19.80;99.90
38866;DHT22;62686;48.984;8.394;2022-08-18T22:46:21;19.80;99.90
38866;DHT22;62686;48.984;8.394;2022-08-18T22:48:51;19.80;99.90
38866;DHT22;62686;48.984;8.394;2022-08-18T22:51:23;19.80;99.90
38866;DHT22;62686;48.984;8.394;2022-08-18T22:53:53;19.80;99.90
38866;DHT22;62686;48.984;8.394;2022-08-18T22:56:22;19.80;99.90
38866;DHT22;62686;48.984;8.394;2022-08-18T22:58:50;19.80;99.90
38866;DHT22;62686;48.984;8.394;2022-08-18T23:01:18;19.80;99.90
38866;DHT22;62686;48.984;8.394;2022-08-18T23:03:46;19.80;99.90
38866;DHT22;62686;48.984;8.394;2022-08-18T23:06:15;19.70;99.90
38866;DHT22;62686;48.984;8.394;2022-08-18T23:08:45;19.70;99.90
38866;DHT22;62686;48.984;8.394;2022-08-18T23:11:13;19.80;99.90
38866;DHT22;62686;48.984;8.394;2022-08-18T23:13:41;19.80;99.90
38866;DHT22;62686;48.984;8.394;2022-08-18T23:16:09;19.80;99.90
38866;DHT22;62686;48.984;8.394;2022-08-18T23:18:37;19.80;99.90
38866;DHT22;62686;48.984;8.394;2022-08-18T23:21:05;19.80;99.90
38866;DHT22;62686;48.984;8.394;2022-08-18T23:23:33;19.80;99.90
38866;DHT22;62686;48.984;8.394;2022-08-18T23:26:03;19.80;99.90
38866;DHT22;62686;48.984;8.394;2022-08-18T23:28:31;19.80;99.90
38866;DHT22;62686;48.984;8.394;2022-08-18T23:31:00;19.90;99.90
38866;DHT22;62686;48.984;8.394;2022-08-18T23:33:28;19.90;99.90
38866;DHT22;62686;48.984;8.394;2022-08-18T23:35:58;19.90;99.90
38866;DHT22;62686;48.984;8.394;2022-08-18T23:38:26;19.80;99.90
38866;DHT22;62686;48.984;8.394;2022-08-18T23:40:55;19.80;99.90
38866;DHT22;62686;48.984;8.394;2022-08-18T23:43:25;19.80;99.90
38866;DHT22;62686;48.984;8.394;2022-08-18T23:45:53;19.80;99.90
38866;DHT22;62686;48.984;8.394;2022-08-18T23:48:21;19.80;99.90
38866;DHT22;62686;48.984;8.394;2022-08-18T23:50:50;19.80;99.90
38866;DHT22;62686;48.984;8.394;2022-08-18T23:53:18;19.80;99.90
38866;DHT22;62686;48.984;8.394;2022-08-18T23:55:46;19.80;99.90
38866;DHT22;62686;48.984;8.394;2022-08-18T23:58:15;19.80;99.90
